sensor_id;sensor_type;location;lat;lon;timestamp;P1;durP1;ratioP1;P2;durP2;ratioP2
57395;SDS011;43222;52.912;6.940;2022-09-09T00:00:06;18.27;;;13.90;;
57395;SDS011;43222;52.912;6.940;2022-09-09T00:02:32;19.45;;;15.20;;
57395;SDS011;43222;52.912;6.940;2022-09-09T00:04:58;17.95;;;13.60;;
57395;SDS011;43222;52.912;6.940;2022-09-09T00:07:36;20.88;;;14.98;;
57395;SDS011;43222;52.912;6.940;2022-09-09T00:15:22;18.75;;;14.73;;
57395;SDS011;43222;52.912;6.940;2022-09-09T00:18:00;22.63;;;14.95;;
57395;SDS011;43222;52.912;6.940;2022-09-09T00:20:29;17.92;;;14.02;;
57395;SDS011;43222;52.912;6.940;2022-09-09T00:23:03;17.73;;;14.00;;
57395;SDS011;43222;52.912;6.940;2022-09-09T00:25:37;19.48;;;14.23;;
57395;SDS011;43222;52.912;6.940;2022-09-09T00:28:12;21.00;;;14.10;;
57395;SDS011;43222;52.912;6.940;2022-09-09T00:30:39;18.00;;;13.93;;
57395;SDS011;43222;52.912;6.940;2022-09-09T00:33:11;19.80;;;14.40;;
57395;SDS011;43222;52.912;6.940;2022-09-09T00:35:42;23.45;;;15.55;;
57395;SDS011;43222;52.912;6.940;2022-09-09T00:38:28;16.80;;;14.20;;
57395;SDS011;43222;52.912;6.940;2022-09-09T00:43:42;19.42;;;14.40;;
57395;SDS011;43222;52.912;6.940;2022-09-09T00:49:19;22.23;;;14.63;;
57395;SDS011;43222;52.912;6.940;2022-09-09T00:54:33;21.50;;;13.60;;
57395;SDS011;43222;52.912;6.940;2022-09-09T00:59:50;16.13;;;12.45;;
57395;SDS011;43222;52.912;6.940;2022-09-09T01:02:27;19.13;;;12.55;;
57395;SDS011;43222;52.912;6.940;2022-09-09T01:04:53;16.95;;;12.25;;
57395;SDS011;43222;52.912;6.940;2022-09-09T01:07:20;17.58;;;13.38;;
57395;SDS011;43222;52.912;6.940;2022-09-09T01:10:03;19.95;;;12.55;;
57395;SDS011;43222;52.912;6.940;2022-09-09T01:12:33;14.52;;;12.43;;
57395;SDS011;43222;52.912;6.940;2022-09-09T01:15:08;15.30;;;11.93;;
57395;SDS011;43222;52.912;6.940;2022-09-09T01:18:08;17.38;;;12.20;;
57395;SDS011;43222;52.912;6.940;2022-09-09T01:28:29;16.15;;;12.02;;
57395;SDS011;43222;52.912;6.940;2022-09-09T01:30:55;17.70;;;11.73;;
57395;SDS011;43222;52.912;6.940;2022-09-09T01:33:22;18.33;;;10.65;;
57395;SDS011;43222;52.912;6.940;2022-09-09T01:38:15;16.35;;;10.70;;
57395;SDS011;43222;52.912;6.940;2022-09-09T01:40:42;13.93;;;8.88;;
57395;SDS011;43222;52.912;6.940;2022-09-09T01:43:08;19.85;;;8.90;;
57395;SDS011;43222;52.912;6.940;2022-09-09T01:45:34;13.55;;;8.60;;
57395;SDS011;43222;52.912;6.940;2022-09-09T01:48:01;16.60;;;7.65;;
57395;SDS011;43222;52.912;6.940;2022-09-09T01:50:27;14.98;;;6.95;;
57395;SDS011;43222;52.912;6.940;2022-09-09T01:52:54;12.32;;;7.38;;
57395;SDS011;43222;52.912;6.940;2022-09-09T01:55:25;10.88;;;7.30;;
57395;SDS011;43222;52.912;6.940;2022-09-09T02:00:19;9.60;;;5.40;;
57395;SDS011;43222;52.912;6.940;2022-09-09T02:03:05;11.75;;;6.10;;
57395;SDS011;43222;52.912;6.940;2022-09-09T02:05:37;11.55;;;5.97;;
57395;SDS011;43222;52.912;6.940;2022-09-09T02:08:14;11.80;;;6.55;;
57395;SDS011;43222;52.912;6.940;2022-09-09T02:11:41;14.30;;;6.57;;
57395;SDS011;43222;52.912;6.940;2022-09-09T02:13:36;16.33;;;6.13;;
57395;SDS011;43222;52.912;6.940;2022-09-09T02:21:34;14.45;;;6.82;;
57395;SDS011;43222;52.912;6.940;2022-09-09T02:24:03;9.70;;;6.10;;
57395;SDS011;43222;52.912;6.940;2022-09-09T02:26:31;12.13;;;6.75;;
57395;SDS011;43222;52.912;6.940;2022-09-09T02:28:59;13.00;;;7.32;;
57395;SDS011;43222;52.912;6.940;2022-09-09T02:31:25;11.63;;;6.97;;
57395;SDS011;43222;52.912;6.940;2022-09-09T02:33:52;14.05;;;7.35;;
57395;SDS011;43222;52.912;6.940;2022-09-09T02:36:20;12.77;;;7.88;;
57395;SDS011;43222;52.912;6.940;2022-09-09T02:38:47;12.63;;;7.18;;
57395;SDS011;43222;52.912;6.940;2022-09-09T02:41:18;11.48;;;7.60;;
57395;SDS011;43222;52.912;6.940;2022-09-09T02:43:45;14.20;;;7.78;;
57395;SDS011;43222;52.912;6.940;2022-09-09T02:46:34;11.70;;;8.30;;
57395;SDS011;43222;52.912;6.940;2022-09-09T02:49:15;15.73;;;8.68;;
57395;SDS011;43222;52.912;6.940;2022-09-09T02:54:21;12.38;;;8.25;;
57395;SDS011;43222;52.912;6.940;2022-09-09T02:56:53;15.35;;;9.43;;
57395;SDS011;43222;52.912;6.940;2022-09-09T02:59:21;14.40;;;9.70;;
57395;SDS011;43222;52.912;6.940;2022-09-09T03:01:47;13.82;;;9.55;;
57395;SDS011;43222;52.912;6.940;2022-09-09T03:04:13;11.90;;;7.70;;
57395;SDS011;43222;52.912;6.940;2022-09-09T03:06:39;14.05;;;8.98;;
57395;SDS011;43222;52.912;6.940;2022-09-09T03:09:05;15.20;;;9.50;;
57395;SDS011;43222;52.912;6.940;2022-09-09T03:11:32;13.40;;;10.02;;
57395;SDS011;43222;52.912;6.940;2022-09-09T03:13:59;13.93;;;9.32;;
57395;SDS011;43222;52.912;6.940;2022-09-09T03:16:24;13.45;;;9.63;;
57395;SDS011;43222;52.912;6.940;2022-09-09T03:18:51;13.45;;;8.55;;
57395;SDS011;43222;52.912;6.940;2022-09-09T03:21:17;13.48;;;7.88;;
57395;SDS011;43222;52.912;6.940;2022-09-09T03:23:43;12.85;;;8.70;;
57395;SDS011;43222;52.912;6.940;2022-09-09T03:26:10;14.60;;;9.20;;
57395;SDS011;43222;52.912;6.940;2022-09-09T03:28:36;13.63;;;9.05;;
57395;SDS011;43222;52.912;6.940;2022-09-09T03:31:03;13.73;;;9.25;;
57395;SDS011;43222;52.912;6.940;2022-09-09T03:33:29;12.20;;;7.75;;
57395;SDS011;43222;52.912;6.940;2022-09-09T03:35:56;14.45;;;9.55;;
57395;SDS011;43222;52.912;6.940;2022-09-09T03:38:22;12.73;;;9.10;;
57395;SDS011;43222;52.912;6.940;2022-09-09T03:40:49;13.68;;;9.52;;
57395;SDS011;43222;52.912;6.940;2022-09-09T03:43:16;15.20;;;9.00;;
57395;SDS011;43222;52.912;6.940;2022-09-09T03:45:45;13.13;;;8.63;;
57395;SDS011;43222;52.912;6.940;2022-09-09T03:48:12;12.90;;;8.48;;
57395;SDS011;43222;52.912;6.940;2022-09-09T03:50:38;12.90;;;7.50;;
57395;SDS011;43222;52.912;6.940;2022-09-09T03:53:04;13.13;;;7.80;;
57395;SDS011;43222;52.912;6.940;2022-09-09T03:55:31;9.65;;;6.70;;
57395;SDS011;43222;52.912;6.940;2022-09-09T03:57:57;11.18;;;6.60;;
57395;SDS011;43222;52.912;6.940;2022-09-09T04:00:25;12.20;;;6.22;;
57395;SDS011;43222;52.912;6.940;2022-09-09T04:02:51;9.80;;;5.88;;
57395;SDS011;43222;52.912;6.940;2022-09-09T04:05:20;9.05;;;4.40;;
57395;SDS011;43222;52.912;6.940;2022-09-09T04:07:46;10.25;;;4.43;;
57395;SDS011;43222;52.912;6.940;2022-09-09T04:10:12;8.23;;;4.05;;
57395;SDS011;43222;52.912;6.940;2022-09-09T04:12:40;7.90;;;3.67;;
57395;SDS011;43222;52.912;6.940;2022-09-09T04:15:06;7.80;;;3.97;;
57395;SDS011;43222;52.912;6.940;2022-09-09T04:17:33;5.88;;;3.40;;
57395;SDS011;43222;52.912;6.940;2022-09-09T04:19:59;8.25;;;3.42;;
57395;SDS011;43222;52.912;6.940;2022-09-09T04:22:26;6.50;;;2.80;;
57395;SDS011;43222;52.912;6.940;2022-09-09T04:24:52;8.13;;;2.63;;
57395;SDS011;43222;52.912;6.940;2022-09-09T04:27:18;7.55;;;2.85;;
57395;SDS011;43222;52.912;6.940;2022-09-09T04:29:44;6.38;;;3.40;;
57395;SDS011;43222;52.912;6.940;2022-09-09T04:32:10;8.20;;;3.83;;
57395;SDS011;43222;52.912;6.940;2022-09-09T04:34:36;9.13;;;4.78;;
57395;SDS011;43222;52.912;6.940;2022-09-09T04:37:02;10.32;;;6.00;;
57395;SDS011;43222;52.912;6.940;2022-09-09T04:39:28;9.27;;;6.25;;
57395;SDS011;43222;52.912;6.940;2022-09-09T04:41:54;12.48;;;7.32;;
57395;SDS011;43222;52.912;6.940;2022-09-09T04:44:20;10.70;;;7.20;;
57395;SDS011;43222;52.912;6.940;2022-09-09T04:46:46;13.93;;;8.40;;
57395;SDS011;43222;52.912;6.940;2022-09-09T04:49:12;13.02;;;8.50;;
57395;SDS011;43222;52.912;6.940;2022-09-09T04:51:41;12.02;;;8.90;;
57395;SDS011;43222;52.912;6.940;2022-09-09T04:54:07;12.57;;;8.80;;
57395;SDS011;43222;52.912;6.940;2022-09-09T04:56:33;13.95;;;8.73;;
57395;SDS011;43222;52.912;6.940;2022-09-09T04:59:01;13.68;;;8.40;;
57395;SDS011;43222;52.912;6.940;2022-09-09T05:01:28;14.70;;;8.80;;
57395;SDS011;43222;52.912;6.940;2022-09-09T05:03:54;13.60;;;9.07;;
57395;SDS011;43222;52.912;6.940;2022-09-09T05:06:20;12.75;;;8.70;;
57395;SDS011;43222;52.912;6.940;2022-09-09T05:08:47;13.60;;;9.13;;
57395;SDS011;43222;52.912;6.940;2022-09-09T05:11:27;10.93;;;8.65;;
57395;SDS011;43222;52.912;6.940;2022-09-09T05:13:53;11.98;;;8.68;;
57395;SDS011;43222;52.912;6.940;2022-09-09T05:16:20;13.25;;;9.38;;
57395;SDS011;43222;52.912;6.940;2022-09-09T05:18:46;14.63;;;8.73;;
57395;SDS011;43222;52.912;6.940;2022-09-09T05:21:13;13.75;;;8.32;;
57395;SDS011;43222;52.912;6.940;2022-09-09T05:23:39;10.70;;;7.95;;
57395;SDS011;43222;52.912;6.940;2022-09-09T05:26:06;11.90;;;8.43;;
57395;SDS011;43222;52.912;6.940;2022-09-09T05:28:33;13.98;;;8.85;;
57395;SDS011;43222;52.912;6.940;2022-09-09T05:31:04;14.63;;;8.55;;
57395;SDS011;43222;52.912;6.940;2022-09-09T05:33:30;11.98;;;9.30;;
57395;SDS011;43222;52.912;6.940;2022-09-09T05:36:05;14.05;;;10.40;;
57395;SDS011;43222;52.912;6.940;2022-09-09T05:38:31;13.98;;;9.85;;
57395;SDS011;43222;52.912;6.940;2022-09-09T05:40:58;11.63;;;10.00;;
57395;SDS011;43222;52.912;6.940;2022-09-09T05:43:24;11.98;;;9.13;;
57395;SDS011;43222;52.912;6.940;2022-09-09T05:48:33;14.60;;;9.40;;
57395;SDS011;43222;52.912;6.940;2022-09-09T05:51:00;13.70;;;8.93;;
57395;SDS011;43222;52.912;6.940;2022-09-09T05:53:27;11.43;;;9.63;;
57395;SDS011;43222;52.912;6.940;2022-09-09T05:56:02;12.43;;;8.70;;
57395;SDS011;43222;52.912;6.940;2022-09-09T05:58:32;12.73;;;9.57;;
57395;SDS011;43222;52.912;6.940;2022-09-09T06:01:02;13.85;;;9.23;;
57395;SDS011;43222;52.912;6.940;2022-09-09T06:03:28;11.60;;;9.23;;
57395;SDS011;43222;52.912;6.940;2022-09-09T06:06:02;13.00;;;9.15;;
57395;SDS011;43222;52.912;6.940;2022-09-09T06:08:30;11.52;;;8.38;;
57395;SDS011;43222;52.912;6.940;2022-09-09T06:11:03;11.50;;;8.18;;
57395;SDS011;43222;52.912;6.940;2022-09-09T06:13:29;13.07;;;8.10;;
57395;SDS011;43222;52.912;6.940;2022-09-09T06:15:56;8.60;;;7.20;;
57395;SDS011;43222;52.912;6.940;2022-09-09T06:18:23;10.98;;;6.88;;
57395;SDS011;43222;52.912;6.940;2022-09-09T06:23:21;9.40;;;6.20;;
57395;SDS011;43222;52.912;6.940;2022-09-09T06:25:47;13.20;;;5.70;;
57395;SDS011;43222;52.912;6.940;2022-09-09T06:28:14;9.95;;;5.75;;
57395;SDS011;43222;52.912;6.940;2022-09-09T06:30:40;7.00;;;4.97;;
57395;SDS011;43222;52.912;6.940;2022-09-09T06:33:06;10.05;;;4.80;;
57395;SDS011;43222;52.912;6.940;2022-09-09T06:35:32;8.48;;;4.55;;
57395;SDS011;43222;52.912;6.940;2022-09-09T06:37:58;7.47;;;4.55;;
57395;SDS011;43222;52.912;6.940;2022-09-09T06:40:24;9.35;;;4.57;;
57395;SDS011;43222;52.912;6.940;2022-09-09T06:42:50;7.72;;;4.60;;
57395;SDS011;43222;52.912;6.940;2022-09-09T06:45:16;9.73;;;4.70;;
57395;SDS011;43222;52.912;6.940;2022-09-09T06:47:43;7.32;;;3.97;;
57395;SDS011;43222;52.912;6.940;2022-09-09T06:50:09;7.13;;;4.30;;
57395;SDS011;43222;52.912;6.940;2022-09-09T06:52:36;8.88;;;4.88;;
57395;SDS011;43222;52.912;6.940;2022-09-09T06:55:02;9.23;;;4.95;;
57395;SDS011;43222;52.912;6.940;2022-09-09T06:57:28;7.82;;;4.63;;
57395;SDS011;43222;52.912;6.940;2022-09-09T06:59:54;8.23;;;4.38;;
57395;SDS011;43222;52.912;6.940;2022-09-09T07:02:20;7.32;;;4.82;;
57395;SDS011;43222;52.912;6.940;2022-09-09T07:04:46;8.55;;;5.43;;
57395;SDS011;43222;52.912;6.940;2022-09-09T07:07:16;8.68;;;5.35;;
57395;SDS011;43222;52.912;6.940;2022-09-09T07:09:42;10.02;;;5.47;;
57395;SDS011;43222;52.912;6.940;2022-09-09T07:12:10;9.45;;;6.00;;
57395;SDS011;43222;52.912;6.940;2022-09-09T07:14:37;8.93;;;5.65;;
57395;SDS011;43222;52.912;6.940;2022-09-09T07:17:04;8.98;;;5.60;;
57395;SDS011;43222;52.912;6.940;2022-09-09T07:19:30;9.70;;;6.15;;
57395;SDS011;43222;52.912;6.940;2022-09-09T07:21:56;9.82;;;6.03;;
57395;SDS011;43222;52.912;6.940;2022-09-09T07:24:22;9.25;;;6.05;;
57395;SDS011;43222;52.912;6.940;2022-09-09T07:26:48;9.60;;;5.93;;
57395;SDS011;43222;52.912;6.940;2022-09-09T07:29:14;10.60;;;7.18;;
57395;SDS011;43222;52.912;6.940;2022-09-09T07:31:40;8.00;;;5.80;;
57395;SDS011;43222;52.912;6.940;2022-09-09T07:34:07;11.02;;;5.95;;
57395;SDS011;43222;52.912;6.940;2022-09-09T07:36:35;10.05;;;5.95;;
57395;SDS011;43222;52.912;6.940;2022-09-09T07:39:03;14.48;;;6.32;;
57395;SDS011;43222;52.912;6.940;2022-09-09T07:41:39;11.40;;;4.90;;
57395;SDS011;43222;52.912;6.940;2022-09-09T07:44:06;15.02;;;5.60;;
57395;SDS011;43222;52.912;6.940;2022-09-09T07:46:33;10.35;;;4.50;;
57395;SDS011;43222;52.912;6.940;2022-09-09T07:48:59;8.65;;;4.53;;
57395;SDS011;43222;52.912;6.940;2022-09-09T07:51:27;10.43;;;4.20;;
57395;SDS011;43222;52.912;6.940;2022-09-09T07:53:57;9.93;;;4.20;;
57395;SDS011;43222;52.912;6.940;2022-09-09T07:56:24;8.48;;;3.90;;
57395;SDS011;43222;52.912;6.940;2022-09-09T07:58:51;15.73;;;4.20;;
57395;SDS011;43222;52.912;6.940;2022-09-09T08:01:19;13.00;;;3.92;;
57395;SDS011;43222;52.912;6.940;2022-09-09T08:03:46;11.32;;;3.90;;
57395;SDS011;43222;52.912;6.940;2022-09-09T08:06:13;7.80;;;4.30;;
57395;SDS011;43222;52.912;6.940;2022-09-09T08:08:40;6.82;;;3.63;;
57395;SDS011;43222;52.912;6.940;2022-09-09T08:11:09;8.95;;;4.35;;
57395;SDS011;43222;52.912;6.940;2022-09-09T08:13:36;8.60;;;3.05;;
57395;SDS011;43222;52.912;6.940;2022-09-09T08:16:06;11.10;;;3.67;;
57395;SDS011;43222;52.912;6.940;2022-09-09T08:18:33;8.27;;;3.88;;
57395;SDS011;43222;52.912;6.940;2022-09-09T08:21:06;8.95;;;3.85;;
57395;SDS011;43222;52.912;6.940;2022-09-09T08:23:33;12.88;;;3.72;;
57395;SDS011;43222;52.912;6.940;2022-09-09T08:26:04;10.38;;;4.32;;
57395;SDS011;43222;52.912;6.940;2022-09-09T08:28:30;8.60;;;3.92;;
57395;SDS011;43222;52.912;6.940;2022-09-09T08:31:04;9.52;;;3.67;;
57395;SDS011;43222;52.912;6.940;2022-09-09T08:33:30;9.32;;;4.15;;
57395;SDS011;43222;52.912;6.940;2022-09-09T08:35:56;8.90;;;4.05;;
57395;SDS011;43222;52.912;6.940;2022-09-09T08:38:22;10.45;;;3.78;;
57395;SDS011;43222;52.912;6.940;2022-09-09T08:40:48;11.18;;;4.00;;
57395;SDS011;43222;52.912;6.940;2022-09-09T08:43:16;7.50;;;3.47;;
57395;SDS011;43222;52.912;6.940;2022-09-09T08:46:07;9.38;;;3.40;;
57395;SDS011;43222;52.912;6.940;2022-09-09T08:51:01;8.90;;;3.75;;
57395;SDS011;43222;52.912;6.940;2022-09-09T08:53:28;8.68;;;3.30;;
57395;SDS011;43222;52.912;6.940;2022-09-09T08:55:56;7.45;;;3.67;;
57395;SDS011;43222;52.912;6.940;2022-09-09T09:11:13;10.38;;;3.50;;
57395;SDS011;43222;52.912;6.940;2022-09-09T09:16:26;9.65;;;3.10;;
57395;SDS011;43222;52.912;6.940;2022-09-09T09:18:52;10.15;;;2.92;;
57395;SDS011;43222;52.912;6.940;2022-09-09T09:23:58;9.88;;;2.90;;
57395;SDS011;43222;52.912;6.940;2022-09-09T09:26:25;9.88;;;2.70;;
57395;SDS011;43222;52.912;6.940;2022-09-09T09:28:54;11.88;;;3.08;;
57395;SDS011;43222;52.912;6.940;2022-09-09T09:31:22;11.20;;;3.00;;
57395;SDS011;43222;52.912;6.940;2022-09-09T09:33:55;12.70;;;2.97;;
57395;SDS011;43222;52.912;6.940;2022-09-09T09:36:25;9.93;;;2.80;;
57395;SDS011;43222;52.912;6.940;2022-09-09T09:38:59;12.63;;;3.08;;
57395;SDS011;43222;52.912;6.940;2022-09-09T09:41:36;11.82;;;2.70;;
57395;SDS011;43222;52.912;6.940;2022-09-09T09:44:03;10.48;;;2.90;;
57395;SDS011;43222;52.912;6.940;2022-09-09T09:46:30;11.23;;;2.63;;
57395;SDS011;43222;52.912;6.940;2022-09-09T09:49:00;11.02;;;2.80;;
57395;SDS011;43222;52.912;6.940;2022-09-09T09:51:27;11.60;;;2.70;;
57395;SDS011;43222;52.912;6.940;2022-09-09T09:53:54;10.65;;;2.50;;
57395;SDS011;43222;52.912;6.940;2022-09-09T09:56:30;8.48;;;2.58;;
57395;SDS011;43222;52.912;6.940;2022-09-09T09:58:57;10.85;;;2.60;;
57395;SDS011;43222;52.912;6.940;2022-09-09T10:01:25;9.70;;;2.22;;
57395;SDS011;43222;52.912;6.940;2022-09-09T10:06:35;8.50;;;2.50;;
57395;SDS011;43222;52.912;6.940;2022-09-09T10:09:24;10.05;;;2.60;;
57395;SDS011;43222;52.912;6.940;2022-09-09T10:14:21;10.70;;;2.47;;
57395;SDS011;43222;52.912;6.940;2022-09-09T10:16:55;9.65;;;2.20;;
57395;SDS011;43222;52.912;6.940;2022-09-09T10:22:03;9.30;;;1.80;;
57395;SDS011;43222;52.912;6.940;2022-09-09T10:39:49;8.68;;;1.80;;
57395;SDS011;43222;52.912;6.940;2022-09-09T10:42:23;8.07;;;1.85;;
57395;SDS011;43222;52.912;6.940;2022-09-09T10:44:59;12.05;;;2.22;;
57395;SDS011;43222;52.912;6.940;2022-09-09T10:47:37;8.38;;;1.80;;
57395;SDS011;43222;52.912;6.940;2022-09-09T10:52:37;10.75;;;2.13;;
57395;SDS011;43222;52.912;6.940;2022-09-09T10:55:25;8.77;;;1.92;;
57395;SDS011;43222;52.912;6.940;2022-09-09T10:57:54;10.02;;;2.03;;
57395;SDS011;43222;52.912;6.940;2022-09-09T11:00:27;8.18;;;1.80;;
57395;SDS011;43222;52.912;6.940;2022-09-09T11:02:58;11.07;;;1.90;;
57395;SDS011;43222;52.912;6.940;2022-09-09T11:05:40;13.07;;;1.95;;
57395;SDS011;43222;52.912;6.940;2022-09-09T11:08:12;9.43;;;2.30;;
57395;SDS011;43222;52.912;6.940;2022-09-09T11:13:17;8.13;;;1.67;;
57395;SDS011;43222;52.912;6.940;2022-09-09T11:15:46;9.73;;;1.85;;
57395;SDS011;43222;52.912;6.940;2022-09-09T11:18:19;9.70;;;1.92;;
57395;SDS011;43222;52.912;6.940;2022-09-09T11:20:57;8.30;;;1.80;;
57395;SDS011;43222;52.912;6.940;2022-09-09T11:23:32;7.47;;;1.70;;
57395;SDS011;43222;52.912;6.940;2022-09-09T11:26:02;7.93;;;1.65;;
57395;SDS011;43222;52.912;6.940;2022-09-09T11:31:21;7.25;;;1.42;;
57395;SDS011;43222;52.912;6.940;2022-09-09T11:44:51;8.57;;;1.60;;
57395;SDS011;43222;52.912;6.940;2022-09-09T11:49:54;8.82;;;1.55;;
57395;SDS011;43222;52.912;6.940;2022-09-09T11:52:24;11.38;;;1.70;;
57395;SDS011;43222;52.912;6.940;2022-09-09T11:57:25;9.50;;;1.58;;
57395;SDS011;43222;52.912;6.940;2022-09-09T11:59:51;8.57;;;1.60;;
57395;SDS011;43222;52.912;6.940;2022-09-09T12:02:27;6.97;;;1.58;;
57395;SDS011;43222;52.912;6.940;2022-09-09T12:17:23;8.45;;;1.58;;
57395;SDS011;43222;52.912;6.940;2022-09-09T12:25:04;7.63;;;1.40;;
57395;SDS011;43222;52.912;6.940;2022-09-09T12:27:34;8.85;;;1.55;;
57395;SDS011;43222;52.912;6.940;2022-09-09T12:30:15;7.32;;;1.45;;
57395;SDS011;43222;52.912;6.940;2022-09-09T12:32:41;6.63;;;1.50;;
57395;SDS011;43222;52.912;6.940;2022-09-09T12:37:40;6.70;;;1.60;;
57395;SDS011;43222;52.912;6.940;2022-09-09T12:40:18;7.03;;;1.20;;
57395;SDS011;43222;52.912;6.940;2022-09-09T12:42:44;6.72;;;1.15;;
57395;SDS011;43222;52.912;6.940;2022-09-09T12:45:21;7.07;;;1.40;;
57395;SDS011;43222;52.912;6.940;2022-09-09T12:47:51;6.40;;;1.38;;
57395;SDS011;43222;52.912;6.940;2022-09-09T12:50:21;7.85;;;1.25;;
57395;SDS011;43222;52.912;6.940;2022-09-09T12:52:47;7.85;;;0.95;;
57395;SDS011;43222;52.912;6.940;2022-09-09T12:55:19;5.85;;;1.20;;
57395;SDS011;43222;52.912;6.940;2022-09-09T12:57:46;5.30;;;1.23;;
57395;SDS011;43222;52.912;6.940;2022-09-09T13:00:20;11.35;;;1.20;;
57395;SDS011;43222;52.912;6.940;2022-09-09T13:05:21;6.25;;;1.33;;
57395;SDS011;43222;52.912;6.940;2022-09-09T13:07:47;6.15;;;1.25;;
57395;SDS011;43222;52.912;6.940;2022-09-09T13:10:15;9.32;;;1.50;;
57395;SDS011;43222;52.912;6.940;2022-09-09T13:12:45;6.43;;;1.45;;
57395;SDS011;43222;52.912;6.940;2022-09-09T13:15:16;8.57;;;1.45;;
57395;SDS011;43222;52.912;6.940;2022-09-09T13:17:49;9.95;;;1.70;;
57395;SDS011;43222;52.912;6.940;2022-09-09T13:20:18;9.65;;;1.58;;
57395;SDS011;43222;52.912;6.940;2022-09-09T13:22:45;10.13;;;1.67;;
57395;SDS011;43222;52.912;6.940;2022-09-09T13:25:18;8.27;;;1.30;;
57395;SDS011;43222;52.912;6.940;2022-09-09T13:28:04;5.57;;;1.10;;
57395;SDS011;43222;52.912;6.940;2022-09-09T13:30:32;9.38;;;1.42;;
57395;SDS011;43222;52.912;6.940;2022-09-09T13:33:22;7.93;;;1.50;;
57395;SDS011;43222;52.912;6.940;2022-09-09T13:38:14;8.73;;;1.55;;
57395;SDS011;43222;52.912;6.940;2022-09-09T13:40:40;6.88;;;1.30;;
57395;SDS011;43222;52.912;6.940;2022-09-09T13:43:18;12.00;;;1.70;;
57395;SDS011;43222;52.912;6.940;2022-09-09T13:45:52;14.70;;;2.20;;
57395;SDS011;43222;52.912;6.940;2022-09-09T13:48:18;10.15;;;1.65;;
57395;SDS011;43222;52.912;6.940;2022-09-09T13:50:53;6.68;;;1.30;;
57395;SDS011;43222;52.912;6.940;2022-09-09T13:53:19;7.43;;;1.50;;
57395;SDS011;43222;52.912;6.940;2022-09-09T13:55:45;8.73;;;1.48;;
57395;SDS011;43222;52.912;6.940;2022-09-09T13:58:15;9.85;;;1.52;;
57395;SDS011;43222;52.912;6.940;2022-09-09T14:00:43;8.98;;;1.30;;
57395;SDS011;43222;52.912;6.940;2022-09-09T14:03:10;7.32;;;1.55;;
57395;SDS011;43222;52.912;6.940;2022-09-09T14:05:36;17.58;;;2.53;;
57395;SDS011;43222;52.912;6.940;2022-09-09T14:08:03;10.35;;;1.55;;
57395;SDS011;43222;52.912;6.940;2022-09-09T14:10:29;8.00;;;1.80;;
57395;SDS011;43222;52.912;6.940;2022-09-09T14:12:55;13.02;;;1.90;;
57395;SDS011;43222;52.912;6.940;2022-09-09T14:15:21;9.38;;;1.88;;
57395;SDS011;43222;52.912;6.940;2022-09-09T14:17:47;7.32;;;1.35;;
57395;SDS011;43222;52.912;6.940;2022-09-09T14:20:13;6.28;;;1.35;;
57395;SDS011;43222;52.912;6.940;2022-09-09T14:22:40;6.97;;;1.38;;
57395;SDS011;43222;52.912;6.940;2022-09-09T14:25:06;8.02;;;1.63;;
57395;SDS011;43222;52.912;6.940;2022-09-09T14:27:33;6.93;;;1.50;;
57395;SDS011;43222;52.912;6.940;2022-09-09T14:29:59;8.55;;;1.60;;
57395;SDS011;43222;52.912;6.940;2022-09-09T14:32:26;8.15;;;1.20;;
57395;SDS011;43222;52.912;6.940;2022-09-09T14:34:52;10.10;;;1.23;;
57395;SDS011;43222;52.912;6.940;2022-09-09T14:37:18;9.18;;;1.20;;
57395;SDS011;43222;52.912;6.940;2022-09-09T14:39:45;11.25;;;1.17;;
57395;SDS011;43222;52.912;6.940;2022-09-09T14:42:12;6.20;;;1.02;;
57395;SDS011;43222;52.912;6.940;2022-09-09T14:44:39;4.70;;;0.82;;
57395;SDS011;43222;52.912;6.940;2022-09-09T14:47:05;3.88;;;0.70;;
57395;SDS011;43222;52.912;6.940;2022-09-09T14:49:33;2.65;;;0.40;;
57395;SDS011;43222;52.912;6.940;2022-09-09T14:51:59;2.08;;;0.32;;
57395;SDS011;43222;52.912;6.940;2022-09-09T14:54:25;2.05;;;0.43;;
57395;SDS011;43222;52.912;6.940;2022-09-09T14:56:51;2.13;;;0.40;;
57395;SDS011;43222;52.912;6.940;2022-09-09T14:59:17;3.28;;;0.40;;
57395;SDS011;43222;52.912;6.940;2022-09-09T15:01:43;2.67;;;0.30;;
57395;SDS011;43222;52.912;6.940;2022-09-09T15:04:10;2.42;;;0.40;;
57395;SDS011;43222;52.912;6.940;2022-09-09T15:06:39;3.38;;;0.50;;
57395;SDS011;43222;52.912;6.940;2022-09-09T15:09:07;1.67;;;0.43;;
57395;SDS011;43222;52.912;6.940;2022-09-09T15:11:34;1.70;;;0.40;;
57395;SDS011;43222;52.912;6.940;2022-09-09T15:14:07;2.63;;;0.50;;
57395;SDS011;43222;52.912;6.940;2022-09-09T15:16:33;2.30;;;0.50;;
57395;SDS011;43222;52.912;6.940;2022-09-09T15:19:00;2.70;;;0.65;;
57395;SDS011;43222;52.912;6.940;2022-09-09T15:21:27;3.92;;;0.90;;
57395;SDS011;43222;52.912;6.940;2022-09-09T15:23:53;7.03;;;0.90;;
57395;SDS011;43222;52.912;6.940;2022-09-09T15:26:19;4.78;;;1.00;;
57395;SDS011;43222;52.912;6.940;2022-09-09T15:28:46;3.88;;;0.70;;
57395;SDS011;43222;52.912;6.940;2022-09-09T15:33:51;4.65;;;0.85;;
57395;SDS011;43222;52.912;6.940;2022-09-09T15:36:19;4.43;;;0.77;;
57395;SDS011;43222;52.912;6.940;2022-09-09T15:38:45;5.63;;;0.85;;
57395;SDS011;43222;52.912;6.940;2022-09-09T15:41:12;4.63;;;0.93;;
57395;SDS011;43222;52.912;6.940;2022-09-09T15:43:38;3.22;;;0.95;;
57395;SDS011;43222;52.912;6.940;2022-09-09T15:46:39;4.22;;;0.93;;
57395;SDS011;43222;52.912;6.940;2022-09-09T15:48:58;4.80;;;1.17;;
57395;SDS011;43222;52.912;6.940;2022-09-09T15:53:55;5.63;;;0.93;;
57395;SDS011;43222;52.912;6.940;2022-09-09T15:56:21;6.43;;;0.90;;
57395;SDS011;43222;52.912;6.940;2022-09-09T15:58:47;3.13;;;0.90;;
57395;SDS011;43222;52.912;6.940;2022-09-09T16:01:13;5.32;;;1.10;;
57395;SDS011;43222;52.912;6.940;2022-09-09T16:03:41;5.80;;;0.98;;
57395;SDS011;43222;52.912;6.940;2022-09-09T16:06:10;3.97;;;1.05;;
57395;SDS011;43222;52.912;6.940;2022-09-09T16:08:37;5.40;;;1.10;;
57395;SDS011;43222;52.912;6.940;2022-09-09T16:11:07;6.38;;;1.02;;
57395;SDS011;43222;52.912;6.940;2022-09-09T16:13:38;4.35;;;0.80;;
57395;SDS011;43222;52.912;6.940;2022-09-09T16:16:04;6.63;;;1.15;;
57395;SDS011;43222;52.912;6.940;2022-09-09T16:18:44;3.63;;;0.90;;
57395;SDS011;43222;52.912;6.940;2022-09-09T16:21:27;5.35;;;1.30;;
57395;SDS011;43222;52.912;6.940;2022-09-09T16:23:57;4.70;;;1.10;;
57395;SDS011;43222;52.912;6.940;2022-09-09T16:26:24;4.80;;;1.20;;
57395;SDS011;43222;52.912;6.940;2022-09-09T16:28:50;4.82;;;1.25;;
57395;SDS011;43222;52.912;6.940;2022-09-09T16:31:19;4.63;;;1.30;;
57395;SDS011;43222;52.912;6.940;2022-09-09T16:33:46;4.57;;;1.10;;
57395;SDS011;43222;52.912;6.940;2022-09-09T16:36:20;5.00;;;1.20;;
57395;SDS011;43222;52.912;6.940;2022-09-09T16:38:46;5.20;;;1.70;;
57395;SDS011;43222;52.912;6.940;2022-09-09T16:41:13;5.65;;;1.33;;
57395;SDS011;43222;52.912;6.940;2022-09-09T16:43:40;3.78;;;1.08;;
57395;SDS011;43222;52.912;6.940;2022-09-09T16:46:11;6.53;;;1.27;;
57395;SDS011;43222;52.912;6.940;2022-09-09T16:48:38;5.65;;;1.38;;
57395;SDS011;43222;52.912;6.940;2022-09-09T16:51:05;5.30;;;1.20;;
57395;SDS011;43222;52.912;6.940;2022-09-09T16:53:32;4.55;;;1.30;;
57395;SDS011;43222;52.912;6.940;2022-09-09T16:55:58;4.72;;;1.30;;
57395;SDS011;43222;52.912;6.940;2022-09-09T16:58:30;5.22;;;1.45;;
57395;SDS011;43222;52.912;6.940;2022-09-09T17:00:59;5.78;;;1.50;;
57395;SDS011;43222;52.912;6.940;2022-09-09T17:03:26;4.15;;;1.27;;
57395;SDS011;43222;52.912;6.940;2022-09-09T17:05:52;4.88;;;1.33;;
57395;SDS011;43222;52.912;6.940;2022-09-09T17:08:18;5.57;;;1.30;;
57395;SDS011;43222;52.912;6.940;2022-09-09T17:10:44;5.30;;;1.30;;